Mooers, NY (12958)

11:45 PM EST on December 18, 2014 (GMT -0500)
Hidden View Farms | Change Station
CLOSE
Current Station
Personal Weather Station
Location: Champlain, NY
Elevation: 194 ft
Nearby Weather Stations
Active Advisory: Special Statement

Elev 194 ft 44.99 °N, 73.49 °W | Updated 3 minutes ago

Overcast
Overcast
27.0 °F
Feels Like 16 °F
N
14.0
Wind Variable Wind from NW
Gusts 18.0 mph

Today
High -- | Low -- °F
--% Chance of Precip.
Yesterday
High -- | Low -- °F
Precip. -- in
7:27 AM 4:14 PM
Waning Crescent, 10% visible
Pressure 29.94 in
Visibility 10.0 miles
Clouds Scattered Clouds 2500 ft
Overcast 3900 ft
Windchill 16 °F
Dew Point 25 °F
Humidity 90%
Rainfall 0.02 in
Snow Depth Not available.
UV 0 out of 12
Pollen .10 out of 12
Air Quality Not available.
Flu Activity Not available.
SPECI KPBG 190406Z AUTO 32009KT 10SM SCT025 OVC039 M02/M06 A2994 RMK AO2 T10171061

More Conditions Fewer Conditions

Pressure 29.94 in
Visibility 10.0 miles
Clouds Scattered Clouds 2500 ft
Overcast 3900 ft
Windchill 16 °F
Dew Point 25 °F
Humidity 90%
Rainfall 0.02 in
Snow Depth Not available.
UV 0 out of 12
Pollen .10 out of 12
Air Quality Not available.
Flu Activity Not available.
SPECI KPBG 190406Z AUTO 32009KT 10SM SCT025 OVC039 M02/M06 A2994 RMK AO2 T10171061

More Conditions Fewer Conditions

10-Day Weather Forecast

Almanac

Astronomy

Dec. 18, 2014 Rise Set
Actual Time
Civil Twilight
Nautical Twilight
Astronomical Twilight
Moon
Length of Visible Light
Length of Day
Tomorrow will be .
, % of the Moon is Illuminated

Today's Extremes

State Highs State Lows

Community

WunderPhotos

Upload Photos

1,778,960 photos uploaded!

WunderBlogs® & News

Nearby

Air Quality

  Air Quality AQ Index Pollutant
Not available.

Snow Depth

Station Depth Elevation

Earthquake Activity

City Distance Mag. Time & Date
Minimum magnitude displayed is 2.5.

Coastal Water Temperatures

Place Temperature

Nearby Weather Stations